Buoy 32866

sailwx.info

Track history (hours):
 
Tides and Currents Weather Stations Pressure Air Temp Water Temp Dewpoint Dewpoint Depression Visibility Wind Speed Wind Dir Waves Ship Positions

Drifting buoy 32866

Last reported at 2018-Jun-24 05:55 UTC. Time now 2018-Jun-24 06:55 UTC.
Position S 33°10' W 105°25'.

Water temperature 19.2 ° C

Date/timePositionNaut miles runAvg speedWind from/ knotsBaromVisibWave heightAir tempDewpointWater temp
2018-Jun-24 05:55S 33°10' W 105°25'1 0.5 19.2
2018-Jun-24 04:57S 33°10' W 105°25'0 0.0 19.2
2018-Jun-24 04:29S 33°10' W 105°25'0 0.0 19.2
2018-Jun-24 04:18S 33°10' W 105°25'0 0.0 19.2
2018-Jun-24 04:16S 33°10' W 105°25'1 0.6 19.2
2018-Jun-24 03:15S 33°09' W 105°25'0 0.0 19.2
2018-Jun-24 03:13S 33°09' W 105°25'0 0.0 19.2
2018-Jun-24 02:50S 33°09' W 105°25'0 0.0 19.2
2018-Jun-24 01:47S 33°09' W 105°25'0 0.0 19.2
2018-Jun-24 01:36S 33°09' W 105°25'0 0.0 19.2
2018-Jun-24 01:34S 33°09' W 105°25'1 0.4 19.2
2018-Jun-24 00:13S 33°08' W 105°25'0 0.0 19.2
2018-Jun-24 00:10S 33°08' W 105°25'0 0.0 19.2
2018-Jun-24 00:04S 33°08' W 105°25'1 0.5 19.2
2018-Jun-23 22:33S 33°08' W 105°24'3 0.5 19.2
2018-Jun-23 17:30S 33°06' W 105°22'1 0.5 19.2
2018-Jun-23 16:01S 33°05' W 105°21'1 3.6 19.2
2018-Jun-23 15:51S 33°06' W 105°21'1 0.6 19.2
2018-Jun-23 14:53S 33°05' W 105°21'1 1.7 19.1
2018-Jun-23 14:35S 33°05' W 105°20'0 0.0 19.1
2018-Jun-23 14:20S 33°05' W 105°20'1 0.5 19.1
2018-Jun-23 13:13S 33°05' W 105°20'0 0.0 19.1
2018-Jun-23 12:58S 33°05' W 105°20'1 0.7 19.1
2018-Jun-23 11:47S 33°05' W 105°19'0 0.0 19.1
2018-Jun-23 11:43S 33°05' W 105°19'0 0.0 19.1
2018-Jun-23 10:06S 33°05' W 105°19'0 0.0 19.1
2018-Jun-23 10:04S 33°05' W 105°19'2 0.7 19.1
2018-Jun-23 06:52S 33°04' W 105°17'0 0.0 19.2
2018-Jun-23 06:07S 33°04' W 105°17'0 0.0 19.2
2018-Jun-23 05:17S 33°04' W 105°17'1 0.7 19.2
2018-Jun-23 04:36S 33°04' W 105°17'0 0.0 19.2
2018-Jun-23 03:36S 33°04' W 105°17'1 3.8 19.2
2018-Jun-23 03:28S 33°04' W 105°17'0 0.0 19.2
2018-Jun-23 03:02S 33°04' W 105°17'0 0.0 19.2
2018-Jun-23 02:19S 33°04' W 105°17'112.0 19.2
2018-Jun-23 02:16S 33°03' W 105°17'1 2.0 19.2
2018-Jun-23 02:01S 33°03' W 105°16'0 0.0 19.2
2018-Jun-23 00:39S 33°03' W 105°16'0 0.0 19.2
2018-Jun-23 00:20S 33°03' W 105°16'1 0.6 19.2
2018-Jun-22 23:00S 33°02' W 105°16'0 0.0 19.2
2018-Jun-22 22:45S 33°02' W 105°16'2 0.4 19.2
2018-Jun-22 17:46S 33°01' W 105°14'0 0.0
2018-Jun-22 16:52S 33°01' W 105°14'1 0.8 19.0
2018-Jun-22 16:13S 33°01' W 105°14'1 5.0 19.1
2018-Jun-22 16:07S 33°01' W 105°14'1 0.6 19.0
2018-Jun-22 15:15S 33°01' W 105°13'1 2.7 19.0
2018-Jun-22 15:04S 33°01' W 105°14'1 1.9 19.0
2018-Jun-22 14:32S 33°01' W 105°13'1 0.6 19.0
2018-Jun-22 13:36S 33°01' W 105°13'1 3.8 19.0
2018-Jun-22 13:28S 33°01' W 105°12'1 0.8 19.0
2018-Jun-22 12:51S 33°01' W 105°13'0 0.0 19.0
2018-Jun-22 11:59S 33°01' W 105°13'0 0.0
2018-Jun-22 11:57S 33°01' W 105°13'1 2.7 18.9
2018-Jun-22 11:46S 33°01' W 105°12'1 0.4 18.9
2018-Jun-22 10:14S 33°00' W 105°12'2 0.9 18.8
2018-Jun-22 08:33S 33°00' W 105°10'0 0.0 18.7
2018-Jun-22 06:28S 33°00' W 105°10'0 0.0 18.7
2018-Jun-22 05:36S 33°00' W 105°10'1 0.8 18.7
2018-Jun-22 04:57S 33°00' W 105°10'1 7.8 18.7
2018-Jun-22 04:51S 32°59' W 105°10'1 0.9 18.7
2018-Jun-22 03:57S 33°00' W 105°10'1 0.6 18.7
2018-Jun-22 03:07S 33°00' W 105°10'1 0.7 18.7
2018-Jun-22 02:26S 33°00' W 105°10'0 0.0 18.7
2018-Jun-22 02:20S 33°00' W 105°10'1 0.8 18.7
2018-Jun-22 01:05S 33°00' W 105°08'1 1.8 18.7
2018-Jun-22 00:45S 33°01' W 105°08'1 4.0 18.7
2018-Jun-22 00:36S 33°00' W 105°08'0 0.0 18.7
2018-Jun-21 23:32S 33°00' W 105°08'1 0.9 18.7
2018-Jun-21 22:57S 33°00' W 105°08'2 0.3 18.7
2018-Jun-21 17:13S 33°01' W 105°06'1 0.8 19.1
2018-Jun-21 16:36S 33°01' W 105°05'0 0.0 19.1
2018-Jun-21 16:32S 33°01' W 105°05'1 5.5 19.1
2018-Jun-21 16:21S 33°01' W 105°04'0 0.0 19.1
2018-Jun-21 15:29S 33°01' W 105°04'0 0.0
2018-Jun-21 14:51S 33°01' W 105°04'0 0.0
2018-Jun-21 14:44S 33°01' W 105°04'1 1.3 19.1
2018-Jun-21 14:07S 33°00' W 105°05'1 3.8 19.1
2018-Jun-21 13:59S 33°00' W 105°04'1 0.5 19.1
2018-Jun-21 13:03S 33°00' W 105°04'1 1.0 19.1
2018-Jun-21 12:18S 33°01' W 105°03'0 0.0 19.0
2018-Jun-21 12:07S 33°01' W 105°03'1 0.3 19.0
2018-Jun-21 10:30S 33°01' W 105°02'0 0.0 18.9
2018-Jun-21 10:26S 33°01' W 105°02'3 1.6 18.9
2018-Jun-21 08:44S 33°02' W 105°00'1 0.2 18.7
2018-Jun-21 05:57S 33°03' W 105°00'1 0.9 18.7
2018-Jun-21 05:18S 33°02' W 105°00'1 4.7 18.7
2018-Jun-21 05:03S 33°03' W 104°59'0 0.0 18.7
2018-Jun-21 04:19S 33°03' W 104°59'0 0.0 18.7
2018-Jun-21 03:30S 33°03' W 104°59'0 0.0 18.8
2018-Jun-21 03:21S 33°03' W 104°59'0 0.0 18.9
2018-Jun-21 02:49S 33°03' W 104°59'1 0.5 18.9
2018-Jun-21 01:36S 33°04' W 104°59'0 0.0 19.0
2018-Jun-21 01:06S 33°04' W 104°59'0 0.0 19.0
2018-Jun-21 00:48S 33°04' W 104°59'1 0.6 19.0
2018-Jun-20 23:59S 33°04' W 104°58'1 0.9 19.0
2018-Jun-20 23:07S 33°04' W 104°58'2 1.1 19.1
2018-Jun-20 21:20S 33°04' W 104°55'0 0.0 19.1
2018-Jun-20 17:33S 33°04' W 104°55'1 1.8 19.2
2018-Jun-20 16:53S 33°05' W 104°55'1 1.7 19.2
2018-Jun-20 16:35S 33°05' W 104°55'0 0.0 19.2
2018-Jun-20 15:57S 33°05' W 104°55'0 0.0 19.2
2018-Jun-20 15:13S 33°05' W 104°55'1 1.8 19.2
2018-Jun-20 14:56S 33°05' W 104°54'1 1.4 19.2
2018-Jun-20 14:30S 33°06' W 104°54'0 0.0 19.2
2018-Jun-20 14:15S 33°06' W 104°54'1 0.8 19.2
2018-Jun-20 13:15S 33°07' W 104°53'1 1.2 19.2
2018-Jun-20 12:49S 33°07' W 104°53'0 0.0 19.2
2018-Jun-20 12:21S 33°07' W 104°53'136.0 19.2
2018-Jun-20 12:19S 33°08' W 104°53'1 0.4 19.2
2018-Jun-20 11:10S 33°08' W 104°52'236.0 19.3
2018-Jun-20 11:06S 33°10' W 104°52'0 0.0 19.3
2018-Jun-20 10:38S 33°10' W 104°52'0 0.0 19.3
2018-Jun-20 08:57S 33°10' W 104°52'1 0.2 19.3
2018-Jun-20 06:17S 33°10' W 104°52'1 2.0 19.3
2018-Jun-20 05:38S 33°11' W 104°52'1 0.5 19.3
2018-Jun-20 04:40S 33°11' W 104°52'0 0.0 19.3
2018-Jun-20 03:57S 33°11' W 104°52'0 0.0 19.3
2018-Jun-20 03:51S 33°11' W 104°52'0 0.0 19.4
2018-Jun-20 03:35S 33°11' W 104°52'0 0.0 19.3
2018-Jun-20 03:10S 33°11' W 104°52'0 0.0 19.3
2018-Jun-20 02:55S 33°11' W 104°52'0 0.0 19.3
2018-Jun-20 02:07S 33°11' W 104°52'1 3.6 19.3
2018-Jun-20 01:54S 33°12' W 104°51'0 0.0 19.3
2018-Jun-20 01:35S 33°12' W 104°51'0 0.0 19.3
2018-Jun-20 00:58S 33°12' W 104°51'1 1.6 19.3
2018-Jun-20 00:35S 33°13' W 104°51'0 0.0 19.3
2018-Jun-20 00:32S 33°13' W 104°51'1 0.4 19.3
2018-Jun-19 23:21S 33°13' W 104°50'2 7.7 19.2
2018-Jun-19 23:06S 33°14' W 104°49'0 0.0 19.2
2018-Jun-19 22:51S 33°14' W 104°49'0 0.0 19.2
2018-Jun-19 21:34S 33°14' W 104°49'1 0.2 19.2
2018-Jun-19 17:52S 33°14' W 104°48'0 0.0 19.0
2018-Jun-19 17:15S 33°14' W 104°48'1 0.8 19.0
2018-Jun-19 16:17S 33°15' W 104°47'0 0.0 19.0
2018-Jun-19 16:13S 33°15' W 104°47'1 0.8 19.0
2018-Jun-19 15:30S 33°16' W 104°47'0 0.0 19.0
2018-Jun-19 15:06S 33°16' W 104°47'1 3.3 19.0
2018-Jun-19 14:57S 33°16' W 104°47'1 9.8 19.0
2018-Jun-19 14:49S 33°17' W 104°46'1 0.3 19.0
2018-Jun-19 13:20S 33°17' W 104°46'1 2.8 19.0
2018-Jun-19 13:07S 33°16' W 104°46'2 2.7 19.0
2018-Jun-19 12:27S 33°18' W 104°46'1 1.5 19.0
2018-Jun-19 11:39S 33°19' W 104°44'1 1.6 19.0
2018-Jun-19 10:54S 33°18' W 104°46'111.7 19.0
2018-Jun-19 10:48S 33°19' W 104°44'0 0.0 19.0
2018-Jun-19 09:06S 33°19' W 104°44'3 1.3 18.9
2018-Jun-19 06:36S 33°22' W 104°43'0 0.0 18.9
2018-Jun-19 05:55S 33°22' W 104°43'0 0.0 18.9
2018-Jun-19 04:59S 33°22' W 104°43'1 0.7 18.9
2018-Jun-19 04:18S 33°22' W 104°43'1 1.2 18.9
2018-Jun-19 03:48S 33°22' W 104°43'1 1.1 19.0
2018-Jun-19 03:15S 33°23' W 104°43'1 0.4 19.0
2018-Jun-19 02:00S 33°23' W 104°42'1 0.7 19.0
2018-Jun-19 01:06S 33°23' W 104°42'0 0.0 19.0
2018-Jun-19 01:00S 33°23' W 104°42'5 3.1 19.0
2018-Jun-18 23:31S 33°26' W 104°38'0 0.0 19.0
2018-Jun-18 23:20S 33°26' W 104°38'0 0.0 19.0
2018-Jun-18 21:48S 33°26' W 104°38'0 0.0 19.0
2018-Jun-18 17:34S 33°26' W 104°38'2 1.1 18.8
2018-Jun-18 15:52S 33°28' W 104°37'1 1.9 19.0
2018-Jun-18 15:27S 33°29' W 104°37'0 0.0 19.0
2018-Jun-18 15:18S 33°29' W 104°37'1 1.2 19.0
2018-Jun-18 14:52S 33°29' W 104°36'1 1.2 19.0
2018-Jun-18 13:52S 33°29' W 104°35'1 3.1 19.0
2018-Jun-18 13:37S 33°30' W 104°35'1 1.4 19.0
2018-Jun-18 12:41S 33°31' W 104°35'0 0.0 19.0
2018-Jun-18 12:11S 33°31' W 104°35'1 5.2 19.0
2018-Jun-18 12:02S 33°32' W 104°34'0 0.0 19.0
2018-Jun-18 11:06S 33°32' W 104°34'0 0.0 19.0
2018-Jun-18 11:02S 33°32' W 104°34'4 1.0 19.0
2018-Jun-18 06:54S 33°36' W 104°34'0 0.0 18.9
2018-Jun-18 05:34S 33°36' W 104°34'1 3.6 18.9
2018-Jun-18 05:21S 33°35' W 104°33'1 1.0 19.0
2018-Jun-18 04:36S 33°36' W 104°34'0 0.0 19.0
2018-Jun-18 03:59S 33°36' W 104°34'1 6.5 18.9
2018-Jun-18 03:47S 33°37' W 104°34'111.1 18.9
2018-Jun-18 03:40S 33°36' W 104°34'1 1.0 18.9
2018-Jun-18 02:25S 33°37' W 104°34'0 0.0 19.0
2018-Jun-18 02:18S 33°37' W 104°34'0 0.7 19.0
2018-Jun-18 01:37S 33°37' W 104°34'0 0.0 19.0
2018-Jun-18 01:33S 33°37' W 104°34'0 2.3 19.0
2018-Jun-18 01:20S 33°37' W 104°34'0 0.0 19.0
2018-Jun-18 00:44S 33°37' W 104°34'1 0.8 18.9
2018-Jun-17 23:58S 33°38' W 104°34'0 0.0 18.8
2018-Jun-17 23:54S 33°38' W 104°34'0 1.8 18.8
2018-Jun-17 23:37S 33°38' W 104°34'1 0.8 18.8
2018-Jun-17 22:00S 33°39' W 104°34'2 0.4 18.7
2018-Jun-17 17:50S 33°41' W 104°34'0 0.0 18.9
2018-Jun-17 17:00S 33°41' W 104°34'1 1.1 18.9
2018-Jun-17 16:19S 33°41' W 104°34'0 0.0 18.9
2018-Jun-17 16:15S 33°41' W 104°34'1 1.1 18.9
2018-Jun-17 15:34S 33°42' W 104°34'1 9.0 18.9
2018-Jun-17 15:30S 33°41' W 104°34'0 0.0 18.9
2018-Jun-17 15:19S 33°41' W 104°34'1 1.3 18.9
2018-Jun-17 14:21S 33°43' W 104°33'0 0.0 18.9
2018-Jun-17 14:04S 33°43' W 104°33'0 0.0 18.9
2018-Jun-17 13:49S 33°43' W 104°33'1 0.7 18.9
2018-Jun-17 12:42S 33°43' W 104°34'1 1.6 18.7
2018-Jun-17 12:20S 33°44' W 104°34'0 0.0 18.7
2018-Jun-17 12:07S 33°44' W 104°34'0 0.0 18.7
2018-Jun-17 11:16S 33°44' W 104°34'0 0.0 18.6
2018-Jun-17 11:14S 33°44' W 104°34'1 0.7 18.6
2018-Jun-17 09:32S 33°45' W 104°34'0 0.2 18.5
2018-Jun-17 06:32S 33°45' W 104°34'0 0.0 18.5
2018-Jun-17 05:01S 33°45' W 104°34'1 0.7 18.5
2018-Jun-17 04:07S 33°46' W 104°34'0 0.0 18.5
2018-Jun-17 04:01S 33°46' W 104°34'0 0.0 18.5
2018-Jun-17 03:59S 33°46' W 104°34'0 0.0 18.5
2018-Jun-17 02:50S 33°46' W 104°34'0 0.0 18.5
2018-Jun-17 02:30S 33°46' W 104°34'0 0.0 18.5
2018-Jun-17 02:19S 33°46' W 104°34'0 0.0 18.5
2018-Jun-17 02:04S 33°46' W 104°34'1 1.4 18.6
2018-Jun-17 01:30S 33°46' W 104°34'0 1.5 18.6
2018-Jun-17 01:10S 33°46' W 104°34'0 7.5 18.6
2018-Jun-17 01:06S 33°46' W 104°34'0 0.8 18.6
2018-Jun-17 00:28S 33°46' W 104°34'0 0.0 18.6
2018-Jun-17 00:21S 33°46' W 104°34'1 2.3 18.6
2018-Jun-16 23:55S 33°46' W 104°33'1 0.5 18.6
2018-Jun-16 22:48S 33°47' W 104°33'0 0.8 18.6
2018-Jun-16 22:12S 33°47' W 104°32'2 0.5 18.6
2018-Jun-16 17:19S 33°49' W 104°32'0 0.0 18.7
2018-Jun-16 17:14S 33°49' W 104°32'1 0.9 18.7
2018-Jun-16 16:36S 33°50' W 104°32'1 0.5 18.7
2018-Jun-16 14:57S 33°50' W 104°32'0 0.0 18.7
2018-Jun-16 14:52S 33°50' W 104°32'1 1.4 18.7
2018-Jun-16 14:27S 33°51' W 104°32'0 0.0 18.7
2018-Jun-16 14:01S 33°51' W 104°32'1 0.8 18.7
2018-Jun-16 13:15S 33°52' W 104°32'0 1.1 18.7
2018-Jun-16 12:48S 33°52' W 104°33'0 0.0 18.7
2018-Jun-16 11:32S 33°52' W 104°33'0 0.0 18.8
2018-Jun-16 11:21S 33°52' W 104°33'1 0.5 18.9
2018-Jun-16 09:47S 33°52' W 104°34'0 0.0 19.0
2018-Jun-16 09:44S 33°52' W 104°34'1 0.2 19.0
2018-Jun-16 06:00S 33°53' W 104°34'0 0.0 19.2
2018-Jun-16 05:20S 33°53' W 104°34'0 0.5 19.2
2018-Jun-16 04:21S 33°53' W 104°33'0 0.0 19.2
2018-Jun-16 03:40S 33°53' W 104°33'1 1.4 19.2
2018-Jun-16 03:14S 33°53' W 104°33'0 0.0 19.2
2018-Jun-16 02:42S 33°53' W 104°33'0 0.0 19.2
2018-Jun-16 02:32S 33°53' W 104°33'0 0.0 19.2
2018-Jun-16 01:40S 33°53' W 104°33'0 0.0 19.2
2018-Jun-16 01:36S 33°53' W 104°33'1 0.9 19.2
2018-Jun-16 00:57S 33°54' W 104°33'1 0.7 19.2
2018-Jun-16 00:05S 33°55' W 104°33'1 3.3 19.2
2018-Jun-15 23:54S 33°55' W 104°33'0 0.0 19.2
2018-Jun-15 23:18S 33°55' W 104°33'0 0.5 19.3
2018-Jun-15 22:20S 33°55' W 104°34'3 0.6 19.3
2018-Jun-15 17:35S 33°57' W 104°37'0 0.0 19.4
2018-Jun-15 16:58S 33°57' W 104°37'1 0.6 19.4
2018-Jun-15 15:56S 33°56' W 104°37'1 1.9 19.4
2018-Jun-15 15:20S 33°56' W 104°38'0 0.0 19.4
2018-Jun-15 15:17S 33°56' W 104°38'1 1.8 19.4
2018-Jun-15 14:51S 33°56' W 104°38'1 1.4 19.4
2018-Jun-15 14:17S 33°56' W 104°38'0 0.0 19.4
2018-Jun-15 14:13S 33°56' W 104°38'1 1.7 19.4
2018-Jun-15 13:45S 33°55' W 104°38'1 2.3 19.4
2018-Jun-15 13:14S 33°55' W 104°40'0 0.0 19.5
2018-Jun-15 12:34S 33°55' W 104°40'0 0.0 19.5
2018-Jun-15 12:04S 33°55' W 104°40'1 1.3 19.5
2018-Jun-15 11:36S 33°54' W 104°40'1 0.7 19.5
2018-Jun-15 09:59S 33°53' W 104°41'217.6 19.5
2018-Jun-15 09:52S 33°52' W 104°42'1 0.2 19.5
2018-Jun-15 06:19S 33°51' W 104°43'0 0.0 19.5
2018-Jun-15 05:42S 33°51' W 104°43'1 0.6 19.5
2018-Jun-15 04:42S 33°50' W 104°43'1 3.6 19.5
2018-Jun-15 04:29S 33°50' W 104°43'0 0.0 19.5
2018-Jun-15 03:59S 33°50' W 104°43'0 0.0 19.5
2018-Jun-15 03:35S 33°50' W 104°43'0 0.0 19.5
2018-Jun-15 02:59S 33°50' W 104°43'0 0.0 19.5
2018-Jun-15 02:54S 33°50' W 104°43'1 1.1 19.5
2018-Jun-15 02:00S 33°50' W 104°44'0 0.8 19.6
2018-Jun-15 01:24S 33°50' W 104°44'1 0.7 19.6
2018-Jun-15 00:17S 33°49' W 104°44'0 1.2 19.6
2018-Jun-14 23:51S 33°49' W 104°45'1 6.0 19.6
2018-Jun-14 23:45S 33°49' W 104°45'1 0.9 19.6
2018-Jun-14 22:36S 33°49' W 104°46'5 1.0 19.6
2018-Jun-14 17:56S 33°44' W 104°49'0 0.0 19.4
2018-Jun-14 17:17S 33°44' W 104°49'1 1.1 19.4
2018-Jun-14 16:21S 33°44' W 104°50'0 4.3 19.4
2018-Jun-14 16:14S 33°44' W 104°49'0 0.0 19.4
2018-Jun-14 16:06S 33°44' W 104°49'118.0 19.4
2018-Jun-14 16:04S 33°44' W 104°49'0 1.2 19.4
2018-Jun-14 15:38S 33°44' W 104°50'0 0.0 19.3
2018-Jun-14 15:18S 33°44' W 104°50'1 1.4 19.3
2018-Jun-14 14:25S 33°43' W 104°50'0 0.0 19.3
2018-Jun-14 14:16S 33°43' W 104°50'0 0.0 19.3
2018-Jun-14 13:37S 33°43' W 104°50'1 0.8 19.2
2018-Jun-14 12:37S 33°42' W 104°50'1 1.3 19.2
2018-Jun-14 12:02S 33°41' W 104°50'0 3.0 19.2
2018-Jun-14 11:52S 33°41' W 104°50'0 0.0 19.2
2018-Jun-14 11:48S 33°41' W 104°50'1 0.5 19.2
2018-Jun-14 10:06S 33°41' W 104°51'015.0 19.2
2018-Jun-14 10:04S 33°41' W 104°50'3 1.7 19.2
2018-Jun-14 08:27S 33°39' W 104°53'1 0.3 19.4
2018-Jun-14 06:40S 33°40' W 104°53'1 0.9 19.4
2018-Jun-14 05:59S 33°39' W 104°53'   19.4
Track history (hours):
 
Tides and Currents Weather Stations Pressure Air Temp Water Temp Dewpoint Dewpoint Depression Visibility Wind Speed Wind Dir Waves Ship Positions

Drifting buoy 32866

Last reported at 2018-Jun-24 05:55 UTC. Time now 2018-Jun-24 06:55 UTC.
Position S 33°10' W 105°25'.

Water temperature 19.2 ° C

Date/timePositionNaut miles runAvg speedWind from/ knotsBaromVisibWave heightAir tempDewpointWater temp
2018-Jun-24 05:55S 33°10' W 105°25'1 0.5 19.2
2018-Jun-24 04:57S 33°10' W 105°25'0 0.0 19.2
2018-Jun-24 04:29S 33°10' W 105°25'0 0.0 19.2
2018-Jun-24 04:18S 33°10' W 105°25'0 0.0 19.2
2018-Jun-24 04:16S 33°10' W 105°25'1 0.6 19.2
2018-Jun-24 03:15S 33°09' W 105°25'0 0.0 19.2
2018-Jun-24 03:13S 33°09' W 105°25'0 0.0 19.2
2018-Jun-24 02:50S 33°09' W 105°25'0 0.0 19.2
2018-Jun-24 01:47S 33°09' W 105°25'0 0.0 19.2
2018-Jun-24 01:36S 33°09' W 105°25'0 0.0 19.2
2018-Jun-24 01:34S 33°09' W 105°25'1 0.4 19.2
2018-Jun-24 00:13S 33°08' W 105°25'0 0.0 19.2
2018-Jun-24 00:10S 33°08' W 105°25'0 0.0 19.2
2018-Jun-24 00:04S 33°08' W 105°25'1 0.5 19.2
2018-Jun-23 22:33S 33°08' W 105°24'3 0.5 19.2
2018-Jun-23 17:30S 33°06' W 105°22'1 0.5 19.2
2018-Jun-23 16:01S 33°05' W 105°21'1 3.6 19.2
2018-Jun-23 15:51S 33°06' W 105°21'1 0.6 19.2
2018-Jun-23 14:53S 33°05' W 105°21'1 1.7 19.1
2018-Jun-23 14:35S 33°05' W 105°20'0 0.0 19.1
2018-Jun-23 14:20S 33°05' W 105°20'1 0.5 19.1
2018-Jun-23 13:13S 33°05' W 105°20'0 0.0 19.1
2018-Jun-23 12:58S 33°05' W 105°20'1 0.7 19.1
2018-Jun-23 11:47S 33°05' W 105°19'0 0.0 19.1
2018-Jun-23 11:43S 33°05' W 105°19'0 0.0 19.1
2018-Jun-23 10:06S 33°05' W 105°19'0 0.0 19.1
2018-Jun-23 10:04S 33°05' W 105°19'2 0.7 19.1
2018-Jun-23 06:52S 33°04' W 105°17'0 0.0 19.2
2018-Jun-23 06:07S 33°04' W 105°17'0 0.0 19.2
2018-Jun-23 05:17S 33°04' W 105°17'1 0.7 19.2
2018-Jun-23 04:36S 33°04' W 105°17'0 0.0 19.2
2018-Jun-23 03:36S 33°04' W 105°17'1 3.8 19.2
2018-Jun-23 03:28S 33°04' W 105°17'0 0.0 19.2
2018-Jun-23 03:02S 33°04' W 105°17'0 0.0 19.2
2018-Jun-23 02:19S 33°04' W 105°17'112.0 19.2
2018-Jun-23 02:16S 33°03' W 105°17'1 2.0 19.2
2018-Jun-23 02:01S 33°03' W 105°16'0 0.0 19.2
2018-Jun-23 00:39S 33°03' W 105°16'0 0.0 19.2
2018-Jun-23 00:20S 33°03' W 105°16'1 0.6 19.2
2018-Jun-22 23:00S 33°02' W 105°16'0 0.0 19.2
2018-Jun-22 22:45S 33°02' W 105°16'2 0.4 19.2
2018-Jun-22 17:46S 33°01' W 105°14'0 0.0
2018-Jun-22 16:52S 33°01' W 105°14'1 0.8 19.0
2018-Jun-22 16:13S 33°01' W 105°14'1 5.0 19.1
2018-Jun-22 16:07S 33°01' W 105°14'1 0.6 19.0
2018-Jun-22 15:15S 33°01' W 105°13'1 2.7 19.0
2018-Jun-22 15:04S 33°01' W 105°14'1 1.9 19.0
2018-Jun-22 14:32S 33°01' W 105°13'1 0.6 19.0
2018-Jun-22 13:36S 33°01' W 105°13'1 3.8 19.0
2018-Jun-22 13:28S 33°01' W 105°12'1 0.8 19.0
2018-Jun-22 12:51S 33°01' W 105°13'0 0.0 19.0
2018-Jun-22 11:59S 33°01' W 105°13'0 0.0
2018-Jun-22 11:57S 33°01' W 105°13'1 2.7 18.9
2018-Jun-22 11:46S 33°01' W 105°12'1 0.4 18.9
2018-Jun-22 10:14S 33°00' W 105°12'2 0.9 18.8
2018-Jun-22 08:33S 33°00' W 105°10'0 0.0 18.7
2018-Jun-22 06:28S 33°00' W 105°10'0 0.0 18.7
2018-Jun-22 05:36S 33°00' W 105°10'1 0.8 18.7
2018-Jun-22 04:57S 33°00' W 105°10'1 7.8 18.7
2018-Jun-22 04:51S 32°59' W 105°10'1 0.9 18.7
2018-Jun-22 03:57S 33°00' W 105°10'1 0.6 18.7
2018-Jun-22 03:07S 33°00' W 105°10'1 0.7 18.7
2018-Jun-22 02:26S 33°00' W 105°10'0 0.0 18.7
2018-Jun-22 02:20S 33°00' W 105°10'1 0.8 18.7
2018-Jun-22 01:05S 33°00' W 105°08'1 1.8 18.7
2018-Jun-22 00:45S 33°01' W 105°08'1 4.0 18.7
2018-Jun-22 00:36S 33°00' W 105°08'0 0.0 18.7
2018-Jun-21 23:32S 33°00' W 105°08'1 0.9 18.7
2018-Jun-21 22:57S 33°00' W 105°08'2 0.3 18.7
2018-Jun-21 17:13S 33°01' W 105°06'1 0.8 19.1
2018-Jun-21 16:36S 33°01' W 105°05'0 0.0 19.1
2018-Jun-21 16:32S 33°01' W 105°05'1 5.5 19.1
2018-Jun-21 16:21S 33°01' W 105°04'0 0.0 19.1
2018-Jun-21 15:29S 33°01' W 105°04'0 0.0
2018-Jun-21 14:51S 33°01' W 105°04'0 0.0
2018-Jun-21 14:44S 33°01' W 105°04'1 1.3 19.1
2018-Jun-21 14:07S 33°00' W 105°05'1 3.8 19.1
2018-Jun-21 13:59S 33°00' W 105°04'1 0.5 19.1
2018-Jun-21 13:03S 33°00' W 105°04'1 1.0 19.1
2018-Jun-21 12:18S 33°01' W 105°03'0 0.0 19.0
2018-Jun-21 12:07S 33°01' W 105°03'1 0.3 19.0
2018-Jun-21 10:30S 33°01' W 105°02'0 0.0 18.9
2018-Jun-21 10:26S 33°01' W 105°02'3 1.6 18.9
2018-Jun-21 08:44S 33°02' W 105°00'1 0.2 18.7
2018-Jun-21 05:57S 33°03' W 105°00'1 0.9 18.7
2018-Jun-21 05:18S 33°02' W 105°00'1 4.7 18.7
2018-Jun-21 05:03S 33°03' W 104°59'0 0.0 18.7
2018-Jun-21 04:19S 33°03' W 104°59'0 0.0 18.7
2018-Jun-21 03:30S 33°03' W 104°59'0 0.0 18.8
2018-Jun-21 03:21S 33°03' W 104°59'0 0.0 18.9
2018-Jun-21 02:49S 33°03' W 104°59'1 0.5 18.9
2018-Jun-21 01:36S 33°04' W 104°59'0 0.0 19.0
2018-Jun-21 01:06S 33°04' W 104°59'0 0.0 19.0
2018-Jun-21 00:48S 33°04' W 104°59'1 0.6 19.0
2018-Jun-20 23:59S 33°04' W 104°58'1 0.9 19.0
2018-Jun-20 23:07S 33°04' W 104°58'2 1.1 19.1
2018-Jun-20 21:20S 33°04' W 104°55'0 0.0 19.1
2018-Jun-20 17:33S 33°04' W 104°55'1 1.8 19.2
2018-Jun-20 16:53S 33°05' W 104°55'1 1.7 19.2
2018-Jun-20 16:35S 33°05' W 104°55'0 0.0 19.2
2018-Jun-20 15:57S 33°05' W 104°55'0 0.0 19.2
2018-Jun-20 15:13S 33°05' W 104°55'1 1.8 19.2
2018-Jun-20 14:56S 33°05' W 104°54'1 1.4 19.2
2018-Jun-20 14:30S 33°06' W 104°54'0 0.0 19.2
2018-Jun-20 14:15S 33°06' W 104°54'1 0.8 19.2
2018-Jun-20 13:15S 33°07' W 104°53'1 1.2 19.2
2018-Jun-20 12:49S 33°07' W 104°53'0 0.0 19.2
2018-Jun-20 12:21S 33°07' W 104°53'136.0 19.2
2018-Jun-20 12:19S 33°08' W 104°53'1 0.4 19.2
2018-Jun-20 11:10S 33°08' W 104°52'236.0 19.3
2018-Jun-20 11:06S 33°10' W 104°52'0 0.0 19.3
2018-Jun-20 10:38S 33°10' W 104°52'0 0.0 19.3
2018-Jun-20 08:57S 33°10' W 104°52'1 0.2 19.3
2018-Jun-20 06:17S 33°10' W 104°52'1 2.0 19.3
2018-Jun-20 05:38S 33°11' W 104°52'1 0.5 19.3
2018-Jun-20 04:40S 33°11' W 104°52'0 0.0 19.3
2018-Jun-20 03:57S 33°11' W 104°52'0 0.0 19.3
2018-Jun-20 03:51S 33°11' W 104°52'0 0.0 19.4
2018-Jun-20 03:35S 33°11' W 104°52'0 0.0 19.3
2018-Jun-20 03:10S 33°11' W 104°52'0 0.0 19.3
2018-Jun-20 02:55S 33°11' W 104°52'0 0.0 19.3
2018-Jun-20 02:07S 33°11' W 104°52'1 3.6 19.3
2018-Jun-20 01:54S 33°12' W 104°51'0 0.0 19.3
2018-Jun-20 01:35S 33°12' W 104°51'0 0.0 19.3
2018-Jun-20 00:58S 33°12' W 104°51'1 1.6 19.3
2018-Jun-20 00:35S 33°13' W 104°51'0 0.0 19.3
2018-Jun-20 00:32S 33°13' W 104°51'1 0.4 19.3
2018-Jun-19 23:21S 33°13' W 104°50'2 7.7 19.2
2018-Jun-19 23:06S 33°14' W 104°49'0 0.0 19.2
2018-Jun-19 22:51S 33°14' W 104°49'0 0.0 19.2
2018-Jun-19 21:34S 33°14' W 104°49'1 0.2 19.2
2018-Jun-19 17:52S 33°14' W 104°48'0 0.0 19.0
2018-Jun-19 17:15S 33°14' W 104°48'1 0.8 19.0
2018-Jun-19 16:17S 33°15' W 104°47'0 0.0 19.0
2018-Jun-19 16:13S 33°15' W 104°47'1 0.8 19.0
2018-Jun-19 15:30S 33°16' W 104°47'0 0.0 19.0
2018-Jun-19 15:06S 33°16' W 104°47'1 3.3 19.0
2018-Jun-19 14:57S 33°16' W 104°47'1 9.8 19.0
2018-Jun-19 14:49S 33°17' W 104°46'1 0.3 19.0
2018-Jun-19 13:20S 33°17' W 104°46'1 2.8 19.0
2018-Jun-19 13:07S 33°16' W 104°46'2 2.7 19.0
2018-Jun-19 12:27S 33°18' W 104°46'1 1.5 19.0
2018-Jun-19 11:39S 33°19' W 104°44'1 1.6 19.0
2018-Jun-19 10:54S 33°18' W 104°46'111.7 19.0
2018-Jun-19 10:48S 33°19' W 104°44'0 0.0 19.0
2018-Jun-19 09:06S 33°19' W 104°44'3 1.3 18.9
2018-Jun-19 06:36S 33°22' W 104°43'0 0.0 18.9
2018-Jun-19 05:55S 33°22' W 104°43'0 0.0 18.9
2018-Jun-19 04:59S 33°22' W 104°43'1 0.7 18.9
2018-Jun-19 04:18S 33°22' W 104°43'1 1.2 18.9
2018-Jun-19 03:48S 33°22' W 104°43'1 1.1 19.0
2018-Jun-19 03:15S 33°23' W 104°43'1 0.4 19.0
2018-Jun-19 02:00S 33°23' W 104°42'1 0.7 19.0
2018-Jun-19 01:06S 33°23' W 104°42'0 0.0 19.0
2018-Jun-19 01:00S 33°23' W 104°42'5 3.1 19.0
2018-Jun-18 23:31S 33°26' W 104°38'0 0.0 19.0
2018-Jun-18 23:20S 33°26' W 104°38'0 0.0 19.0
2018-Jun-18 21:48S 33°26' W 104°38'0 0.0 19.0
2018-Jun-18 17:34S 33°26' W 104°38'2 1.1 18.8
2018-Jun-18 15:52S 33°28' W 104°37'1 1.9 19.0
2018-Jun-18 15:27S 33°29' W 104°37'0 0.0 19.0
2018-Jun-18 15:18S 33°29' W 104°37'1 1.2 19.0
2018-Jun-18 14:52S 33°29' W 104°36'1 1.2 19.0
2018-Jun-18 13:52S 33°29' W 104°35'1 3.1 19.0
2018-Jun-18 13:37S 33°30' W 104°35'1 1.4 19.0
2018-Jun-18 12:41S 33°31' W 104°35'0 0.0 19.0
2018-Jun-18 12:11S 33°31' W 104°35'1 5.2 19.0
2018-Jun-18 12:02S 33°32' W 104°34'0 0.0 19.0
2018-Jun-18 11:06S 33°32' W 104°34'0 0.0 19.0
2018-Jun-18 11:02S 33°32' W 104°34'4 1.0 19.0
2018-Jun-18 06:54S 33°36' W 104°34'0 0.0 18.9
2018-Jun-18 05:34S 33°36' W 104°34'1 3.6 18.9
2018-Jun-18 05:21S 33°35' W 104°33'1 1.0 19.0
2018-Jun-18 04:36S 33°36' W 104°34'0 0.0 19.0
2018-Jun-18 03:59S 33°36' W 104°34'1 6.5 18.9
2018-Jun-18 03:47S 33°37' W 104°34'111.1 18.9
2018-Jun-18 03:40S 33°36' W 104°34'1 1.0 18.9
2018-Jun-18 02:25S 33°37' W 104°34'0 0.0 19.0
2018-Jun-18 02:18S 33°37' W 104°34'0 0.7 19.0
2018-Jun-18 01:37S 33°37' W 104°34'0 0.0 19.0
2018-Jun-18 01:33S 33°37' W 104°34'0 2.3 19.0
2018-Jun-18 01:20S 33°37' W 104°34'0 0.0 19.0
2018-Jun-18 00:44S 33°37' W 104°34'1 0.8 18.9
2018-Jun-17 23:58S 33°38' W 104°34'0 0.0 18.8
2018-Jun-17 23:54S 33°38' W 104°34'0 1.8 18.8
2018-Jun-17 23:37S 33°38' W 104°34'1 0.8 18.8
2018-Jun-17 22:00S 33°39' W 104°34'2 0.4 18.7
2018-Jun-17 17:50S 33°41' W 104°34'0 0.0 18.9
2018-Jun-17 17:00S 33°41' W 104°34'1 1.1 18.9
2018-Jun-17 16:19S 33°41' W 104°34'0 0.0 18.9
2018-Jun-17 16:15S 33°41' W 104°34'1 1.1 18.9
2018-Jun-17 15:34S 33°42' W 104°34'1 9.0 18.9
2018-Jun-17 15:30S 33°41' W 104°34'0 0.0 18.9
2018-Jun-17 15:19S 33°41' W 104°34'1 1.3 18.9
2018-Jun-17 14:21S 33°43' W 104°33'0 0.0 18.9
2018-Jun-17 14:04S 33°43' W 104°33'0 0.0 18.9
2018-Jun-17 13:49S 33°43' W 104°33'1 0.7 18.9
2018-Jun-17 12:42S 33°43' W 104°34'1 1.6 18.7
2018-Jun-17 12:20S 33°44' W 104°34'0 0.0 18.7
2018-Jun-17 12:07S 33°44' W 104°34'0 0.0 18.7
2018-Jun-17 11:16S 33°44' W 104°34'0 0.0 18.6
2018-Jun-17 11:14S 33°44' W 104°34'1 0.7 18.6
2018-Jun-17 09:32S 33°45' W 104°34'0 0.2 18.5
2018-Jun-17 06:32S 33°45' W 104°34'0 0.0 18.5
2018-Jun-17 05:01S 33°45' W 104°34'1 0.7 18.5
2018-Jun-17 04:07S 33°46' W 104°34'0 0.0 18.5
2018-Jun-17 04:01S 33°46' W 104°34'0 0.0 18.5
2018-Jun-17 03:59S 33°46' W 104°34'0 0.0 18.5
2018-Jun-17 02:50S 33°46' W 104°34'0 0.0 18.5
2018-Jun-17 02:30S 33°46' W 104°34'0 0.0 18.5
2018-Jun-17 02:19S 33°46' W 104°34'0 0.0 18.5
2018-Jun-17 02:04S 33°46' W 104°34'1 1.4 18.6
2018-Jun-17 01:30S 33°46' W 104°34'0 1.5 18.6
2018-Jun-17 01:10S 33°46' W 104°34'0 7.5 18.6
2018-Jun-17 01:06S 33°46' W 104°34'0 0.8 18.6
2018-Jun-17 00:28S 33°46' W 104°34'0 0.0 18.6
2018-Jun-17 00:21S 33°46' W 104°34'1 2.3 18.6
2018-Jun-16 23:55S 33°46' W 104°33'1 0.5 18.6
2018-Jun-16 22:48S 33°47' W 104°33'0 0.8 18.6
2018-Jun-16 22:12S 33°47' W 104°32'2 0.5 18.6
2018-Jun-16 17:19S 33°49' W 104°32'0 0.0 18.7
2018-Jun-16 17:14S 33°49' W 104°32'1 0.9 18.7
2018-Jun-16 16:36S 33°50' W 104°32'1 0.5 18.7
2018-Jun-16 14:57S 33°50' W 104°32'0 0.0 18.7
2018-Jun-16 14:52S 33°50' W 104°32'1 1.4 18.7
2018-Jun-16 14:27S 33°51' W 104°32'0 0.0 18.7
2018-Jun-16 14:01S 33°51' W 104°32'1 0.8 18.7
2018-Jun-16 13:15S 33°52' W 104°32'0 1.1 18.7
2018-Jun-16 12:48S 33°52' W 104°33'0 0.0 18.7
2018-Jun-16 11:32S 33°52' W 104°33'0 0.0 18.8
2018-Jun-16 11:21S 33°52' W 104°33'1 0.5 18.9
2018-Jun-16 09:47S 33°52' W 104°34'0 0.0 19.0
2018-Jun-16 09:44S 33°52' W 104°34'1 0.2 19.0
2018-Jun-16 06:00S 33°53' W 104°34'0 0.0 19.2
2018-Jun-16 05:20S 33°53' W 104°34'0 0.5 19.2
2018-Jun-16 04:21S 33°53' W 104°33'0 0.0 19.2
2018-Jun-16 03:40S 33°53' W 104°33'1 1.4 19.2
2018-Jun-16 03:14S 33°53' W 104°33'0 0.0 19.2
2018-Jun-16 02:42S 33°53' W 104°33'0 0.0 19.2
2018-Jun-16 02:32S 33°53' W 104°33'0 0.0 19.2
2018-Jun-16 01:40S 33°53' W 104°33'0 0.0 19.2
2018-Jun-16 01:36S 33°53' W 104°33'1 0.9 19.2
2018-Jun-16 00:57S 33°54' W 104°33'1 0.7 19.2
2018-Jun-16 00:05S 33°55' W 104°33'1 3.3 19.2
2018-Jun-15 23:54S 33°55' W 104°33'0 0.0 19.2
2018-Jun-15 23:18S 33°55' W 104°33'0 0.5 19.3
2018-Jun-15 22:20S 33°55' W 104°34'3 0.6 19.3
2018-Jun-15 17:35S 33°57' W 104°37'0 0.0 19.4
2018-Jun-15 16:58S 33°57' W 104°37'1 0.6 19.4
2018-Jun-15 15:56S 33°56' W 104°37'1 1.9 19.4
2018-Jun-15 15:20S 33°56' W 104°38'0 0.0 19.4
2018-Jun-15 15:17S 33°56' W 104°38'1 1.8 19.4
2018-Jun-15 14:51S 33°56' W 104°38'1 1.4 19.4
2018-Jun-15 14:17S 33°56' W 104°38'0 0.0 19.4
2018-Jun-15 14:13S 33°56' W 104°38'1 1.7 19.4
2018-Jun-15 13:45S 33°55' W 104°38'1 2.3 19.4
2018-Jun-15 13:14S 33°55' W 104°40'0 0.0 19.5
2018-Jun-15 12:34S 33°55' W 104°40'0 0.0 19.5
2018-Jun-15 12:04S 33°55' W 104°40'1 1.3 19.5
2018-Jun-15 11:36S 33°54' W 104°40'1 0.7 19.5
2018-Jun-15 09:59S 33°53' W 104°41'217.6 19.5
2018-Jun-15 09:52S 33°52' W 104°42'1 0.2 19.5
2018-Jun-15 06:19S 33°51' W 104°43'0 0.0 19.5
2018-Jun-15 05:42S 33°51' W 104°43'1 0.6 19.5
2018-Jun-15 04:42S 33°50' W 104°43'1 3.6 19.5
2018-Jun-15 04:29S 33°50' W 104°43'0 0.0 19.5
2018-Jun-15 03:59S 33°50' W 104°43'0 0.0 19.5
2018-Jun-15 03:35S 33°50' W 104°43'0 0.0 19.5
2018-Jun-15 02:59S 33°50' W 104°43'0 0.0 19.5
2018-Jun-15 02:54S 33°50' W 104°43'1 1.1 19.5
2018-Jun-15 02:00S 33°50' W 104°44'0 0.8 19.6
2018-Jun-15 01:24S 33°50' W 104°44'1 0.7 19.6
2018-Jun-15 00:17S 33°49' W 104°44'0 1.2 19.6
2018-Jun-14 23:51S 33°49' W 104°45'1 6.0 19.6
2018-Jun-14 23:45S 33°49' W 104°45'1 0.9 19.6
2018-Jun-14 22:36S 33°49' W 104°46'5 1.0 19.6
2018-Jun-14 17:56S 33°44' W 104°49'0 0.0 19.4
2018-Jun-14 17:17S 33°44' W 104°49'1 1.1 19.4
2018-Jun-14 16:21S 33°44' W 104°50'0 4.3 19.4
2018-Jun-14 16:14S 33°44' W 104°49'0 0.0 19.4
2018-Jun-14 16:06S 33°44' W 104°49'118.0 19.4
2018-Jun-14 16:04S 33°44' W 104°49'0 1.2 19.4
2018-Jun-14 15:38S 33°44' W 104°50'0 0.0 19.3
2018-Jun-14 15:18S 33°44' W 104°50'1 1.4 19.3
2018-Jun-14 14:25S 33°43' W 104°50'0 0.0 19.3
2018-Jun-14 14:16S 33°43' W 104°50'0 0.0 19.3
2018-Jun-14 13:37S 33°43' W 104°50'1 0.8 19.2
2018-Jun-14 12:37S 33°42' W 104°50'1 1.3 19.2
2018-Jun-14 12:02S 33°41' W 104°50'0 3.0 19.2
2018-Jun-14 11:52S 33°41' W 104°50'0 0.0 19.2
2018-Jun-14 11:48S 33°41' W 104°50'1 0.5 19.2
2018-Jun-14 10:06S 33°41' W 104°51'015.0 19.2
2018-Jun-14 10:04S 33°41' W 104°50'3 1.7 19.2
2018-Jun-14 08:27S 33°39' W 104°53'1 0.3 19.4
2018-Jun-14 06:40S 33°40' W 104°53'1 0.9 19.4
2018-Jun-14 05:59S 33°39' W 104°53'   19.4

Dump ship's entire track history